createdAt,value
2019-05-19T00:02:02.242Z,11.10
2019-05-19T00:04:33.567Z,11.00
2019-05-19T00:07:05.009Z,10.90
2019-05-19T00:09:36.368Z,10.90
2019-05-19T00:12:07.745Z,10.80
2019-05-19T00:14:40.582Z,10.70
2019-05-19T00:17:13.017Z,10.70
2019-05-19T00:19:44.410Z,10.60
2019-05-19T00:22:15.826Z,10.60
2019-05-19T00:24:47.160Z,10.50
2019-05-19T00:27:18.603Z,10.40
2019-05-19T00:29:49.995Z,10.40
2019-05-19T00:32:21.356Z,10.30
2019-05-19T00:34:52.742Z,10.20
2019-05-19T00:37:24.131Z,10.20
2019-05-19T00:39:55.491Z,10.10
2019-05-19T00:42:27.799Z,10.10
2019-05-19T00:44:59.139Z,10.00
2019-05-19T00:47:30.500Z,9.90
2019-05-19T00:50:01.855Z,9.90
2019-05-19T00:52:33.233Z,9.80
2019-05-19T00:55:04.928Z,9.80
2019-05-19T00:57:38.079Z,9.70
2019-05-19T01:00:12.086Z,9.70
2019-05-19T01:02:43.427Z,9.70
2019-05-19T01:05:14.781Z,9.70
2019-05-19T01:07:46.101Z,9.60
2019-05-19T01:10:17.508Z,9.60
2019-05-19T01:12:49.807Z,9.50
2019-05-19T01:15:21.401Z,9.50
2019-05-19T01:17:52.785Z,9.40
2019-05-19T01:20:24.125Z,9.40
2019-05-19T01:22:55.527Z,9.30
2019-05-19T01:25:26.857Z,9.30
2019-05-19T01:27:58.223Z,9.30
2019-05-19T01:30:29.543Z,9.20
2019-05-19T01:33:01.229Z,9.20
2019-05-19T01:35:32.568Z,9.20
2019-05-19T01:38:03.930Z,9.20
2019-05-19T01:40:35.251Z,9.10
2019-05-19T01:43:06.605Z,9.10
2019-05-19T01:45:39.006Z,9.00
2019-05-19T01:48:11.337Z,9.00
2019-05-19T01:50:42.643Z,8.90
2019-05-19T01:53:14.005Z,8.90
2019-05-19T01:55:45.353Z,8.80
2019-05-19T01:58:16.731Z,8.80
2019-05-19T02:00:48.039Z,8.70
2019-05-19T02:03:19.403Z,8.70
2019-05-19T02:05:50.750Z,8.70
2019-05-19T02:08:22.122Z,8.60
2019-05-19T02:10:53.489Z,8.60
2019-05-19T02:13:24.834Z,8.50
2019-05-19T02:15:56.170Z,8.50
2019-05-19T02:18:27.506Z,8.50
2019-05-19T02:20:58.864Z,8.40
2019-05-19T02:23:30.219Z,8.40
2019-05-19T02:26:01.557Z,8.30
2019-05-19T02:28:32.909Z,8.30
2019-05-19T02:31:04.196Z,8.30
2019-05-19T02:33:36.042Z,8.20
2019-05-19T02:36:07.464Z,8.20
2019-05-19T02:38:38.837Z,8.20
2019-05-19T02:41:15.231Z,8.20
2019-05-19T02:43:47.996Z,8.20
2019-05-19T02:46:19.626Z,8.10
2019-05-19T02:48:52.357Z,8.20
2019-05-19T02:51:27.105Z,8.10
2019-05-19T02:54:00.948Z,8.10
2019-05-19T02:56:32.979Z,8.00
2019-05-19T02:59:05.030Z,8.00
2019-05-19T03:01:56.220Z,7.90
2019-05-19T03:04:27.544Z,7.90
2019-05-19T03:06:58.963Z,7.90
2019-05-19T03:09:30.320Z,7.80
2019-05-19T03:12:01.722Z,7.80
2019-05-19T03:14:33.360Z,7.80
2019-05-19T03:17:04.797Z,7.80
2019-05-19T03:19:36.179Z,7.80
2019-05-19T03:22:07.499Z,7.80
2019-05-19T03:24:38.835Z,7.80
2019-05-19T03:27:10.366Z,7.80
2019-05-19T03:29:47.424Z,7.80
2019-05-19T03:32:28.832Z,7.80
2019-05-19T03:35:00.141Z,7.80
2019-05-19T03:37:31.479Z,7.80
2019-05-19T03:40:05.063Z,7.90
2019-05-19T03:42:36.458Z,7.90
2019-05-19T03:45:07.888Z,7.90
2019-05-19T03:47:39.190Z,8.00
2019-05-19T03:50:10.533Z,8.10
2019-05-19T03:52:41.948Z,8.20
2019-05-19T03:55:13.281Z,8.30
2019-05-19T03:57:44.603Z,8.40
2019-05-19T04:00:16.872Z,8.40
2019-05-19T04:02:48.212Z,8.50
2019-05-19T04:05:19.557Z,8.60
2019-05-19T04:07:50.872Z,8.70
2019-05-19T04:10:22.325Z,8.80
2019-05-19T04:12:53.637Z,8.80
2019-05-19T04:15:25.079Z,8.90
2019-05-19T04:17:56.369Z,9.00
2019-05-19T04:20:27.696Z,9.10
2019-05-19T04:22:58.987Z,9.20
2019-05-19T04:25:30.315Z,9.30
2019-05-19T04:28:01.660Z,9.50
2019-05-19T04:30:32.961Z,9.70
2019-05-19T04:33:04.300Z,9.80
2019-05-19T04:35:36.592Z,10.00
2019-05-19T04:38:07.931Z,10.10
2019-05-19T04:40:39.274Z,10.20
2019-05-19T04:43:10.617Z,10.40
2019-05-19T04:45:42.020Z,10.60
2019-05-19T04:48:13.418Z,10.80
2019-05-19T04:50:44.810Z,11.00
2019-05-19T04:53:16.116Z,11.30
2019-05-19T04:55:47.482Z,11.50
2019-05-19T04:58:18.814Z,11.70
2019-05-19T05:00:50.146Z,11.90
2019-05-19T05:03:21.490Z,12.20
2019-05-19T05:05:52.846Z,12.40
2019-05-19T05:08:30.131Z,12.70
2019-05-19T05:10:57.202Z,13.00
2019-05-19T05:13:28.524Z,13.30
2019-05-19T05:16:00.888Z,13.50
2019-05-19T05:18:32.238Z,13.70
2019-05-19T05:21:03.628Z,13.80
2019-05-19T05:23:34.997Z,14.00
2019-05-19T05:26:06.350Z,14.20
2019-05-19T05:28:37.689Z,14.30
2019-05-19T05:31:09.134Z,14.50
2019-05-19T05:33:40.461Z,14.80
2019-05-19T05:36:11.838Z,15.00
2019-05-19T05:38:43.138Z,15.20
2019-05-19T05:41:14.485Z,15.40
2019-05-19T05:43:45.840Z,15.70
2019-05-19T05:46:17.241Z,15.90
2019-05-19T05:48:49.554Z,16.10
2019-05-19T05:51:20.944Z,16.40
2019-05-19T05:53:52.305Z,16.60
2019-05-19T05:56:23.679Z,16.90
2019-05-19T05:58:55.073Z,17.00
2019-05-19T06:01:26.437Z,17.10
2019-05-19T06:03:57.765Z,17.20
2019-05-19T06:06:29.142Z,17.40
2019-05-19T06:09:00.485Z,17.70
2019-05-19T06:11:31.858Z,17.90
2019-05-19T06:14:03.331Z,18.10
2019-05-19T06:16:34.788Z,18.30
2019-05-19T06:19:06.238Z,18.50
2019-05-19T06:21:37.745Z,18.60
2019-05-19T06:24:28.282Z,18.60
2019-05-19T06:26:59.667Z,18.60
2019-05-19T06:29:31.055Z,18.70
2019-05-19T06:32:09.406Z,18.80
2019-05-19T06:34:40.763Z,19.00
2019-05-19T06:37:12.194Z,19.20
2019-05-19T06:39:43.521Z,19.40
2019-05-19T06:42:14.941Z,19.70
2019-05-19T06:44:46.309Z,20.00
2019-05-19T06:47:17.701Z,20.30
2019-05-19T06:49:49.078Z,20.50
2019-05-19T06:52:21.489Z,20.60
2019-05-19T06:54:52.841Z,20.80
2019-05-19T06:57:24.238Z,21.00
2019-05-19T06:59:55.627Z,21.20
2019-05-19T07:02:27.022Z,21.40
2019-05-19T07:04:58.433Z,21.50
2019-05-19T07:07:29.795Z,21.70
2019-05-19T07:10:01.197Z,22.00
2019-05-19T07:12:32.597Z,22.20
2019-05-19T07:15:04.032Z,22.30
2019-05-19T07:17:35.553Z,22.50
2019-05-19T07:20:07.158Z,22.60
2019-05-19T07:22:38.554Z,22.60
2019-05-19T07:25:10.613Z,22.60
2019-05-19T07:27:42.033Z,22.60
2019-05-19T07:30:15.241Z,22.70
2019-05-19T07:32:46.679Z,22.90
2019-05-19T07:35:18.043Z,23.00
2019-05-19T07:37:49.436Z,23.10
2019-05-19T07:40:20.812Z,23.40
2019-05-19T07:42:52.207Z,23.60
2019-05-19T07:45:24.538Z,23.80
2019-05-19T07:47:55.921Z,23.90
2019-05-19T07:50:27.301Z,24.00
2019-05-19T07:52:58.743Z,23.90
2019-05-19T07:55:30.176Z,23.80
2019-05-19T07:58:01.567Z,23.80
2019-05-19T08:00:32.955Z,23.80
2019-05-19T08:03:04.432Z,23.90
2019-05-19T08:05:36.313Z,24.00
2019-05-19T08:08:07.854Z,24.10
2019-05-19T08:10:39.242Z,24.20
2019-05-19T08:13:10.704Z,24.30
2019-05-19T08:15:42.023Z,24.30
2019-05-19T08:18:13.514Z,24.40
2019-05-19T08:20:44.890Z,24.40
2019-05-19T08:23:16.364Z,24.30
2019-05-19T08:25:47.721Z,24.30
2019-05-19T08:28:19.108Z,24.30
2019-05-19T08:30:50.479Z,24.30
2019-05-19T08:33:21.938Z,24.50
2019-05-19T08:35:53.592Z,24.60
2019-05-19T08:38:25.007Z,24.80
2019-05-19T08:40:56.421Z,24.90
2019-05-19T08:43:27.813Z,24.90
2019-05-19T08:45:59.190Z,25.00
2019-05-19T08:48:30.596Z,25.00
2019-05-19T08:51:01.981Z,25.10
2019-05-19T08:53:33.398Z,25.20
2019-05-19T08:56:04.750Z,25.40
2019-05-19T08:58:36.170Z,25.40
2019-05-19T09:01:07.502Z,25.50
2019-05-19T09:03:38.898Z,25.60
2019-05-19T09:06:13.346Z,25.70
2019-05-19T09:08:44.702Z,25.80
2019-05-19T09:11:16.122Z,25.70
2019-05-19T09:13:47.723Z,25.60
2019-05-19T09:16:19.124Z,25.60
2019-05-19T09:18:50.578Z,25.80
2019-05-19T09:21:22.127Z,25.90
2019-05-19T09:23:53.625Z,26.10
2019-05-19T09:26:25.002Z,26.20
2019-05-19T09:28:56.404Z,26.20
2019-05-19T09:31:27.858Z,26.40
2019-05-19T09:33:59.297Z,26.70
2019-05-19T09:36:30.653Z,27.00
2019-05-19T09:39:02.115Z,27.20
2019-05-19T09:41:33.766Z,27.50
2019-05-19T09:44:05.433Z,27.60
2019-05-19T09:46:36.796Z,27.90
2019-05-19T09:49:25.770Z,27.90
2019-05-19T09:51:57.130Z,27.90
2019-05-19T09:54:47.487Z,27.90
2019-05-19T09:57:20.508Z,28.00
2019-05-19T09:59:51.895Z,28.10
2019-05-19T10:02:23.263Z,28.20
2019-05-19T10:04:54.732Z,28.40
2019-05-19T10:07:29.174Z,28.50
2019-05-19T10:10:02.572Z,28.60
2019-05-19T10:12:34.101Z,28.80
2019-05-19T10:15:06.368Z,28.90
2019-05-19T10:17:37.731Z,29.10
2019-05-19T10:20:11.297Z,29.20
2019-05-19T10:22:42.632Z,29.60
2019-05-19T10:25:22.176Z,29.80
2019-05-19T10:27:48.940Z,30.10
2019-05-19T10:30:20.738Z,30.30
2019-05-19T10:32:52.136Z,30.00
2019-05-19T10:35:23.502Z,30.00
2019-05-19T10:37:54.888Z,29.70
2019-05-19T10:40:26.243Z,29.60
2019-05-19T10:42:57.565Z,29.60
2019-05-19T10:45:28.938Z,29.90
2019-05-19T10:48:00.382Z,30.10
2019-05-19T10:50:31.794Z,30.10
2019-05-19T10:53:03.142Z,30.50
2019-05-19T10:55:36.897Z,31.00
2019-05-19T10:58:07.577Z,31.70
2019-05-19T11:00:40.031Z,32.10
2019-05-19T11:03:11.480Z,31.80
2019-05-19T11:05:42.882Z,31.20
2019-05-19T11:08:14.256Z,30.40
2019-05-19T11:10:45.657Z,29.80
2019-05-19T11:13:17.058Z,29.50
2019-05-19T11:15:48.397Z,29.10
2019-05-19T11:18:20.777Z,28.90
2019-05-19T11:20:52.155Z,28.60
2019-05-19T11:23:23.521Z,28.70
2019-05-19T11:25:55.113Z,28.80
2019-05-19T11:28:26.559Z,28.90
2019-05-19T11:30:57.922Z,28.90
2019-05-19T11:33:29.295Z,29.00
2019-05-19T11:36:00.673Z,29.20
2019-05-19T11:38:32.052Z,29.20
2019-05-19T11:41:03.401Z,29.00
2019-05-19T11:43:34.763Z,28.80
2019-05-19T11:46:06.109Z,28.70
2019-05-19T11:48:37.446Z,28.50
2019-05-19T11:51:08.862Z,28.40
2019-05-19T11:53:40.170Z,28.30
2019-05-19T11:56:11.783Z,28.20
2019-05-19T11:58:43.240Z,28.10
2019-05-19T12:01:14.585Z,28.00
2019-05-19T12:03:45.933Z,27.90
2019-05-19T12:06:17.307Z,27.80
2019-05-19T12:08:48.652Z,27.60
2019-05-19T12:11:20.108Z,27.60
2019-05-19T12:13:51.478Z,27.60
2019-05-19T12:16:22.858Z,27.60
2019-05-19T12:18:57.485Z,27.40
2019-05-19T12:21:27.451Z,27.20
2019-05-19T12:23:58.889Z,27.10
2019-05-19T12:26:30.374Z,26.90
2019-05-19T12:29:01.918Z,26.70
2019-05-19T12:31:34.306Z,26.60
2019-05-19T12:34:05.814Z,26.50
2019-05-19T12:36:37.493Z,26.50
2019-05-19T12:39:09.119Z,26.50
2019-05-19T12:41:40.599Z,26.50
2019-05-19T12:44:12.476Z,26.60
2019-05-19T12:46:43.880Z,26.70
2019-05-19T12:49:15.278Z,26.80
2019-05-19T12:51:46.709Z,27.20
2019-05-19T12:54:18.113Z,27.60
2019-05-19T12:56:49.501Z,28.20
2019-05-19T12:59:20.879Z,29.50
2019-05-19T13:01:52.327Z,30.60
2019-05-19T13:04:23.712Z,31.60
2019-05-19T13:06:55.143Z,32.60
2019-05-19T13:09:26.507Z,33.60
2019-05-19T13:11:57.966Z,34.40
2019-05-19T13:14:29.349Z,35.00
2019-05-19T13:17:00.719Z,35.60
2019-05-19T13:19:32.189Z,35.50
2019-05-19T13:22:03.605Z,35.70
2019-05-19T13:24:34.994Z,36.10
2019-05-19T13:27:06.415Z,36.40
2019-05-19T13:29:37.817Z,36.50
2019-05-19T13:32:09.215Z,36.60
2019-05-19T13:34:40.652Z,36.90
2019-05-19T13:37:12.074Z,37.20
2019-05-19T13:39:43.447Z,37.20
2019-05-19T13:42:14.920Z,37.00
2019-05-19T13:44:46.310Z,36.40
2019-05-19T13:47:17.766Z,36.40
2019-05-19T13:49:49.116Z,35.20
2019-05-19T13:52:20.530Z,33.60
2019-05-19T13:54:51.902Z,32.50
2019-05-19T13:57:23.280Z,31.40
2019-05-19T13:59:54.656Z,30.70
2019-05-19T14:02:26.149Z,30.30
2019-05-19T14:04:57.796Z,29.80
2019-05-19T14:07:29.176Z,29.90
2019-05-19T14:10:00.536Z,30.90
2019-05-19T14:12:32.001Z,32.60
2019-05-19T14:15:04.230Z,33.50
2019-05-19T14:17:35.860Z,34.70
2019-05-19T14:20:07.782Z,35.50
2019-05-19T14:22:39.137Z,36.00
2019-05-19T14:25:10.739Z,36.50
2019-05-19T14:27:42.233Z,36.80
2019-05-19T14:30:14.008Z,36.20
2019-05-19T14:32:45.525Z,36.10
2019-05-19T14:35:16.896Z,36.60
2019-05-19T14:37:48.305Z,37.30
2019-05-19T14:40:19.880Z,38.00
2019-05-19T14:42:58.752Z,38.20
2019-05-19T14:45:30.350Z,38.40
2019-05-19T14:48:01.759Z,38.40
2019-05-19T14:50:33.177Z,38.70
2019-05-19T14:53:04.581Z,38.10
2019-05-19T14:55:35.980Z,36.90
2019-05-19T14:58:09.462Z,35.20
2019-05-19T15:00:40.490Z,33.50
2019-05-19T15:03:11.894Z,32.30
2019-05-19T15:05:43.281Z,31.20
2019-05-19T15:08:14.679Z,30.60
2019-05-19T15:10:46.129Z,30.20
2019-05-19T15:13:17.545Z,29.80
2019-05-19T15:15:48.970Z,29.40
2019-05-19T15:18:20.368Z,29.10
2019-05-19T15:20:51.805Z,28.90
2019-05-19T15:23:24.065Z,28.80
2019-05-19T15:25:55.461Z,28.90
2019-05-19T15:28:26.899Z,29.00
2019-05-19T15:30:58.325Z,29.00
2019-05-19T15:33:37.720Z,29.00
2019-05-19T15:36:02.922Z,29.50
2019-05-19T15:38:34.404Z,30.20
2019-05-19T15:41:05.776Z,31.50
2019-05-19T15:43:37.228Z,33.20
2019-05-19T15:46:08.668Z,34.30
2019-05-19T15:48:42.141Z,35.10
2019-05-19T15:51:13.529Z,35.90
2019-05-19T15:53:44.927Z,36.20
2019-05-19T15:56:16.337Z,36.40
2019-05-19T15:58:47.709Z,36.70
2019-05-19T16:01:19.104Z,37.00
2019-05-19T16:03:51.556Z,37.40
2019-05-19T16:06:22.940Z,37.90
2019-05-19T16:08:54.439Z,38.30
2019-05-19T16:11:25.906Z,38.30
2019-05-19T16:13:57.338Z,37.90
2019-05-19T16:16:28.849Z,37.90
2019-05-19T16:19:00.380Z,37.90
2019-05-19T16:21:31.731Z,38.00
2019-05-19T16:24:04.190Z,38.20
2019-05-19T16:26:35.645Z,38.60
2019-05-19T16:29:07.015Z,37.70
2019-05-19T16:31:38.403Z,37.20
2019-05-19T16:34:09.872Z,36.40
2019-05-19T16:36:41.322Z,36.00
2019-05-19T16:39:13.704Z,34.80
2019-05-19T16:41:45.136Z,33.60
2019-05-19T16:44:16.614Z,32.30
2019-05-19T16:46:48.010Z,31.80
2019-05-19T16:49:19.443Z,32.00
2019-05-19T16:51:50.856Z,31.70
2019-05-19T16:54:27.020Z,30.70
2019-05-19T16:56:58.414Z,29.20
2019-05-19T16:59:29.846Z,27.80
2019-05-19T17:02:01.220Z,26.60
2019-05-19T17:04:33.599Z,25.60
2019-05-19T17:07:05.090Z,24.80
2019-05-19T17:09:36.485Z,24.20
2019-05-19T17:12:07.870Z,23.80
2019-05-19T17:14:39.327Z,23.40
2019-05-19T17:17:10.720Z,23.00
2019-05-19T17:19:42.126Z,22.70
2019-05-19T17:22:13.537Z,22.40
2019-05-19T17:24:44.906Z,22.20
2019-05-19T17:27:16.292Z,22.00
2019-05-19T17:29:47.740Z,21.80
2019-05-19T17:32:19.120Z,21.70
2019-05-19T17:34:50.519Z,21.50
2019-05-19T17:37:21.983Z,21.40
2019-05-19T17:39:53.381Z,21.30
2019-05-19T17:42:24.753Z,21.10
2019-05-19T17:44:56.165Z,21.00
2019-05-19T17:47:27.560Z,20.90
2019-05-19T17:49:58.978Z,20.80
2019-05-19T17:52:30.363Z,20.70
2019-05-19T17:55:02.038Z,20.50
2019-05-19T17:57:35.562Z,20.40
2019-05-19T18:00:10.118Z,20.30
2019-05-19T18:02:41.416Z,20.30
2019-05-19T18:05:12.770Z,20.20
2019-05-19T18:07:44.173Z,20.20
2019-05-19T18:10:15.777Z,20.10
2019-05-19T18:12:47.137Z,20.00
2019-05-19T18:15:18.532Z,19.80
2019-05-19T18:17:49.999Z,19.70
2019-05-19T18:20:23.627Z,19.50
2019-05-19T18:22:54.538Z,19.40
2019-05-19T18:25:25.979Z,19.30
2019-05-19T18:27:57.334Z,19.20
2019-05-19T18:30:28.774Z,19.10
2019-05-19T18:33:00.163Z,19.00
2019-05-19T18:35:31.514Z,18.90
2019-05-19T18:38:02.921Z,18.80
2019-05-19T18:40:34.346Z,18.70
2019-05-19T18:43:05.779Z,18.70
2019-05-19T18:45:37.219Z,18.70
2019-05-19T18:48:08.578Z,18.70
2019-05-19T18:50:39.946Z,18.60
2019-05-19T18:53:11.303Z,18.50
2019-05-19T18:55:43.685Z,18.50
2019-05-19T18:58:15.274Z,18.40
2019-05-19T19:00:46.748Z,18.40
2019-05-19T19:03:18.281Z,18.40
2019-05-19T19:05:49.649Z,18.40
2019-05-19T19:08:21.002Z,18.40
2019-05-19T19:10:52.335Z,18.50
2019-05-19T19:13:23.710Z,18.40
2019-05-19T19:15:55.040Z,18.40
2019-05-19T19:18:26.452Z,18.40
2019-05-19T19:20:57.817Z,18.30
2019-05-19T19:23:29.202Z,18.20
2019-05-19T19:26:00.557Z,18.20
2019-05-19T19:28:31.968Z,18.00
2019-05-19T19:31:03.334Z,17.90
2019-05-19T19:33:34.707Z,17.80
2019-05-19T19:36:06.065Z,17.70
2019-05-19T19:38:37.558Z,17.70
2019-05-19T19:41:08.933Z,17.60
2019-05-19T19:43:40.332Z,17.60
2019-05-19T19:46:11.672Z,17.60
2019-05-19T19:48:43.075Z,17.50
2019-05-19T19:51:14.423Z,17.50
2019-05-19T19:53:45.872Z,17.50
2019-05-19T19:56:17.213Z,17.50
2019-05-19T19:58:48.614Z,17.50
2019-05-19T20:01:20.959Z,17.50
2019-05-19T20:03:52.343Z,17.50
2019-05-19T20:06:23.708Z,17.40
2019-05-19T20:08:55.101Z,17.40
2019-05-19T20:11:26.455Z,17.30
2019-05-19T20:13:57.838Z,17.30
2019-05-19T20:16:31.527Z,17.20
2019-05-19T20:19:02.897Z,17.20
2019-05-19T20:21:35.162Z,17.20
2019-05-19T20:24:06.546Z,17.20
2019-05-19T20:26:37.908Z,17.10
2019-05-19T20:29:09.248Z,17.10
2019-05-19T20:31:40.566Z,17.00
2019-05-19T20:34:11.979Z,16.90
2019-05-19T20:36:43.332Z,16.80
2019-05-19T20:39:14.703Z,16.80
2019-05-19T20:41:46.050Z,16.60
2019-05-19T20:44:17.436Z,16.50
2019-05-19T20:46:48.823Z,16.40
2019-05-19T20:49:20.229Z,16.30
2019-05-19T20:51:51.598Z,16.20
2019-05-19T20:54:22.973Z,16.10
2019-05-19T20:56:54.320Z,16.00
2019-05-19T20:59:25.697Z,15.80
2019-05-19T21:01:57.047Z,15.70
2019-05-19T21:04:28.372Z,15.60
2019-05-19T21:06:59.726Z,15.50
2019-05-19T21:09:32.087Z,15.40
2019-05-19T21:12:03.435Z,15.30
2019-05-19T21:14:34.833Z,15.20
2019-05-19T21:17:06.185Z,15.10
2019-05-19T21:19:37.535Z,15.00
2019-05-19T21:22:08.845Z,14.90
2019-05-19T21:24:40.188Z,14.80
2019-05-19T21:27:11.532Z,14.80
2019-05-19T21:29:42.883Z,14.70
2019-05-19T21:32:14.259Z,14.70
2019-05-19T21:34:46.602Z,14.60
2019-05-19T21:37:17.939Z,14.60
2019-05-19T21:39:49.285Z,14.50
2019-05-19T21:42:20.966Z,14.50
2019-05-19T21:44:52.337Z,14.40
2019-05-19T21:47:23.671Z,14.40
2019-05-19T21:49:55.013Z,14.30
2019-05-19T21:52:26.370Z,14.20
2019-05-19T21:54:57.737Z,14.10
2019-05-19T21:57:36.571Z,14.10
2019-05-19T22:00:09.869Z,14.00
2019-05-19T22:02:42.821Z,13.90
2019-05-19T22:05:14.669Z,13.80
2019-05-19T22:08:13.828Z,13.70
2019-05-19T22:10:46.276Z,13.60
2019-05-19T22:13:17.623Z,13.60
2019-05-19T22:15:48.995Z,13.50
2019-05-19T22:18:20.339Z,13.50
2019-05-19T22:20:51.702Z,13.50
2019-05-19T22:23:23.036Z,13.40
2019-05-19T22:25:54.407Z,13.40
2019-05-19T22:28:25.728Z,13.40
2019-05-19T22:30:57.089Z,13.30
2019-05-19T22:33:28.442Z,13.20
2019-05-19T22:35:59.810Z,13.20
2019-05-19T22:38:31.126Z,13.10
2019-05-19T22:41:02.517Z,13.00
2019-05-19T22:43:33.852Z,12.90
2019-05-19T22:46:05.221Z,12.90
2019-05-19T22:48:36.520Z,12.80
2019-05-19T22:51:07.837Z,12.80
2019-05-19T22:53:39.194Z,12.70
2019-05-19T22:56:10.595Z,12.60
2019-05-19T22:58:41.923Z,12.60
2019-05-19T23:01:13.351Z,12.50
2019-05-19T23:03:44.689Z,12.50
2019-05-19T23:06:16.060Z,12.50
2019-05-19T23:08:47.402Z,12.50
2019-05-19T23:11:18.970Z,12.50
2019-05-19T23:13:50.274Z,12.50
2019-05-19T23:16:21.628Z,12.50
2019-05-19T23:18:52.942Z,12.40
2019-05-19T23:21:24.316Z,12.40
2019-05-19T23:23:56.622Z,12.50
2019-05-19T23:26:27.993Z,12.50
2019-05-19T23:28:59.311Z,12.50
2019-05-19T23:31:30.672Z,12.50
2019-05-19T23:34:02.001Z,12.60
2019-05-19T23:36:33.374Z,12.60
2019-05-19T23:39:05.922Z,12.70
2019-05-19T23:41:37.307Z,12.70
2019-05-19T23:44:08.723Z,12.80
2019-05-19T23:46:40.139Z,12.90
2019-05-19T23:49:11.443Z,12.90
2019-05-19T23:51:42.764Z,12.90
2019-05-19T23:54:14.065Z,13.00
2019-05-19T23:56:45.388Z,13.00
2019-05-19T23:59:16.734Z,13.00
